| time (UTC) | temp F | wind direction | speed MPH | gust MPH | rain 1hr in | rain 24hr in | rain mn in | humidity % | barometer mb |
| 20260507115227 | 46 | 20 | 1.0 | 3.0 | 0.00 | 0.00 | 0.00 | 61 | 1012.9 |
| 20260507114723 | 45 | 131 | 0.0 | 0.0 | 0.00 | 0.00 | 0.00 | 63 | 1013.0 |
| 20260507114221 | 45 | 95 | 2.0 | 3.0 | 0.00 | 0.00 | 0.00 | 61 | 1013.0 |
| 20260507113718 | 45 | 122 | 0.0 | 0.0 | 0.00 | 0.00 | 0.00 | 63 | 1012.9 |
| 20260507113215 | 44 | 82 | 1.0 | 1.0 | 0.00 | 0.00 | 0.00 | 63 | 1012.7 |
| 20260507112712 | 44 | 79 | 1.0 | 1.0 | 0.00 | 0.00 | 0.00 | 64 | 1012.8 |
| 20260507112209 | 44 | 93 | 0.0 | 0.0 | 0.00 | 0.00 | 0.00 | 65 | 1012.6 |
| 20260507111706 | 43 | 120 | 0.0 | 0.0 | 0.00 | 0.00 | 0.00 | 65 | 1012.5 |
| 20260507111203 | 43 | 150 | 0.0 | 0.0 | 0.00 | 0.00 | 0.00 | 67 | 1012.5 |
| 20260507110659 | 42 | 123 | 0.0 | 0.0 | 0.00 | 0.00 | 0.00 | 68 | 1012.5 |
| 20260507110156 | 42 | 137 | 0.0 | 1.0 | 0.00 | 0.00 | 0.00 | 68 | 1012.7 |
| 20260507105653 | 42 | 125 | 0.0 | 0.0 | 0.00 | 0.00 | 0.00 | 69 | 1012.4 |
| 20260507105149 | 42 | 112 | 0.0 | 0.0 | 0.00 | 0.00 | 0.00 | 69 | 1012.3 |
| 20260507104647 | 41 | 115 | 0.0 | 1.0 | 0.00 | 0.00 | 0.00 | 70 | 1012.2 |
| 20260507104142 | 41 | 132 | 0.0 | 0.0 | 0.00 | 0.00 | 0.00 | 71 | 1012.3 |
| 20260507103638 | 41 | 133 | 0.0 | 0.0 | 0.00 | 0.00 | 0.00 | 72 | 1011.9 |
| 20260507103136 | 41 | 133 | 0.0 | 0.0 | 0.00 | 0.00 | 0.00 | 72 | 1012.1 |
| 20260507102632 | 41 | 130 | 0.0 | 0.0 | 0.00 | 0.00 | 0.00 | 71 | 1012.1 |
| 20260507102128 | 41 | 154 | 0.0 | 1.0 | 0.00 | 0.00 | 0.00 | 71 | 1012.3 |
| 20260507101624 | 41 | 118 | 0.0 | 0.0 | 0.00 | 0.00 | 0.00 | 71 | 1012.1 |
| 20260507101120 | 41 | 132 | 0.0 | 0.0 | 0.00 | 0.00 | 0.00 | 71 | 1012.2 |
| 20260507100618 | 41 | 141 | 0.0 | 0.0 | 0.00 | 0.00 | 0.00 | 70 | 1012.2 |
| 20260507100116 | 41 | 135 | 0.0 | 0.0 | 0.00 | 0.00 | 0.00 | 70 | 1012.0 |
| 20260507095614 | 42 | 135 | 0.0 | 1.0 | 0.00 | 0.00 | 0.00 | 71 | 1011.9 |
| 20260507095110 | 42 | 59 | 1.0 | 1.0 | 0.00 | 0.00 | 0.00 | 71 | 1012.0 |
| 20260507094606 | 42 | 130 | 0.0 | 1.0 | 0.00 | 0.00 | 0.00 | 71 | 1012.0 |
| 20260507094103 | 42 | 152 | 0.0 | 1.0 | 0.00 | 0.00 | 0.00 | 71 | 1012.0 |
| 20260507093600 | 42 | 136 | 0.0 | 0.0 | 0.00 | 0.00 | 0.00 | 72 | 1012.0 |
| 20260507093059 | 42 | 61 | 1.0 | 1.0 | 0.00 | 0.00 | 0.00 | 71 | 1011.9 |
| 20260507092555 | 43 | 155 | 0.0 | 1.0 | 0.00 | 0.00 | 0.00 | 70 | 1011.9 |
| 20260507092052 | 43 | 158 | 0.0 | 1.0 | 0.00 | 0.00 | 0.00 | 69 | 1011.9 |
| 20260507091549 | 43 | 147 | 0.0 | 0.0 | 0.00 | 0.00 | 0.00 | 70 | 1011.8 |
| 20260507091045 | 43 | 155 | 0.0 | 1.0 | 0.00 | 0.00 | 0.00 | 70 | 1011.7 |
| 20260507090541 | 43 | 124 | 0.0 | 1.0 | 0.00 | 0.00 | 0.00 | 69 | 1011.8 |
| 20260507090038 | 44 | 137 | 0.0 | 0.0 | 0.00 | 0.00 | 0.00 | 68 | 1011.8 |
| 20260507085535 | 44 | 108 | 0.0 | 0.0 | 0.00 | 0.00 | 0.00 | 66 | 1011.7 |
| 20260507085031 | 45 | 112 | 0.0 | 0.0 | 0.00 | 0.00 | 0.00 | 65 | 1011.9 |
| 20260507084528 | 45 | 118 | 0.0 | 0.0 | 0.00 | 0.00 | 0.00 | 65 | 1011.7 |
| 20260507084025 | 45 | 114 | 0.0 | 0.0 | 0.00 | 0.00 | 0.00 | 64 | 1011.8 |
| 20260507083521 | 46 | 121 | 0.0 | 1.0 | 0.00 | 0.00 | 0.00 | 64 | 1011.9 |
| 20260507083019 | 46 | 145 | 0.0 | 0.0 | 0.00 | 0.00 | 0.00 | 62 | 1012.2 |
| 20260507082514 | 46 | 146 | 0.0 | 1.0 | 0.00 | 0.00 | 0.00 | 63 | 1011.9 |
| 20260507082011 | 46 | 88 | 0.0 | 1.0 | 0.00 | 0.00 | 0.00 | 62 | 1012.1 |
| 20260507081507 | 46 | 62 | 1.0 | 1.0 | 0.00 | 0.00 | 0.00 | 62 | 1012.1 |
| 20260507081004 | 46 | 158 | 1.0 | 1.0 | 0.00 | 0.00 | 0.00 | 61 | 1012.1 |
| 20260507080500 | 46 | 125 | 1.0 | 1.0 | 0.00 | 0.00 | 0.00 | 62 | 1012.2 |
| 20260507075955 | 46 | 97 | 1.0 | 1.0 | 0.00 | 0.00 | 0.00 | 62 | 1012.2 |
| 20260507075452 | 47 | 69 | 1.0 | 1.0 | 0.00 | 0.00 | 0.00 | 62 | 1011.8 |
| 20260507074949 | 47 | 205 | 1.0 | 1.0 | 0.00 | 0.00 | 0.00 | 59 | 1012.0 |
| 20260507074446 | 47 | 159 | 0.0 | 1.0 | 0.00 | 0.00 | 0.00 | 62 | 1011.8 |
| 20260507073944 | 47 | 202 | 1.0 | 1.0 | 0.00 | 0.00 | 0.00 | 61 | 1012.1 |
| 20260507073440 | 47 | 333 | 1.0 | 1.0 | 0.00 | 0.00 | 0.00 | 60 | 1012.0 |
| 20260507072936 | 47 | 96 | 0.0 | 1.0 | 0.00 | 0.00 | 0.00 | 59 | 1011.9 |
| 20260507072434 | 47 | 297 | 3.0 | 4.0 | 0.00 | 0.00 | 0.00 | 59 | 1011.9 |
| 20260507071931 | 47 | 49 | 1.0 | 1.0 | 0.00 | 0.00 | 0.00 | 59 | 1011.8 |
| 20260507071428 | 47 | 317 | 1.0 | 1.0 | 0.00 | 0.00 | 0.00 | 59 | 1012.0 |
| 20260507070925 | 47 | 90 | 2.0 | 3.0 | 0.00 | 0.00 | 0.00 | 59 | 1012.1 |
| 20260507070422 | 47 | 335 | 1.0 | 3.0 | 0.00 | 0.00 | 0.00 | 60 | 1012.1 |
| 20260507065919 | 47 | 312 | 2.0 | 3.0 | 0.00 | 0.00 | 0.00 | 59 | 1011.8 |
| 20260507065416 | 47 | 67 | 1.0 | 1.0 | 0.00 | 0.00 | 0.00 | 60 | 1011.9 |
| 20260507064913 | 47 | 23 | 1.0 | 1.0 | 0.00 | 0.00 | 0.00 | 59 | 1012.0 |
| 20260507064411 | 47 | 327 | 2.0 | 3.0 | 0.00 | 0.00 | 0.00 | 59 | 1012.1 |
| 20260507063909 | 47 | 78 | 1.0 | 1.0 | 0.00 | 0.00 | 0.00 | 58 | 1011.9 |
| 20260507063406 | 48 | 185 | 2.0 | 3.0 | 0.00 | 0.00 | 0.00 | 58 | 1012.1 |
| 20260507062903 | 48 | 355 | 3.0 | 4.0 | 0.00 | 0.00 | 0.00 | 57 | 1012.1 |
| 20260507062359 | 48 | 23 | 3.0 | 3.0 | 0.00 | 0.00 | 0.00 | 58 | 1012.4 |
| 20260507061857 | 47 | 167 | 1.0 | 1.0 | 0.00 | 0.00 | 0.00 | 59 | 1012.2 |
| 20260507061355 | 48 | 41 | 1.0 | 1.0 | 0.00 | 0.00 | 0.00 | 58 | 1012.1 |
| 20260507060853 | 48 | 139 | 0.0 | 1.0 | 0.00 | 0.00 | 0.00 | 59 | 1012.2 |
| 20260507060349 | 48 | 152 | 2.0 | 3.0 | 0.00 | 0.00 | 0.00 | 58 | 1012.0 |
| 20260507055846 | 49 | 92 | 2.0 | 3.0 | 0.00 | 0.00 | 0.00 | 58 | 1012.1 |
| 20260507055341 | 49 | 7 | 3.0 | 3.0 | 0.00 | 0.00 | 0.00 | 55 | 1012.3 |
| 20260507054838 | 49 | 133 | 1.0 | 1.0 | 0.00 | 0.00 | 0.00 | 57 | 1012.0 |
| 20260507054334 | 49 | 151 | 1.0 | 1.0 | 0.00 | 0.00 | 0.00 | 58 | 1011.9 |
| 20260507053831 | 49 | 130 | 0.0 | 0.0 | 0.00 | 0.00 | 0.00 | 60 | 1012.0 |
| 20260507053329 | 49 | 117 | 0.0 | 0.0 | 0.00 | 0.00 | 0.00 | 59 | 1012.1 |
| 20260507052828 | 49 | 139 | 0.0 | 0.0 | 0.00 | 0.00 | 0.00 | 59 | 1012.2 |
| 20260507052324 | 49 | 134 | 0.0 | 0.0 | 0.00 | 0.00 | 0.00 | 59 | 1012.2 |
| 20260507051822 | 49 | 169 | 0.0 | 0.0 | 0.00 | 0.00 | 0.00 | 58 | 1012.0 |
| 20260507051319 | 49 | 13 | 1.0 | 1.0 | 0.00 | 0.00 | 0.00 | 58 | 1012.1 |
| 20260507050816 | 49 | 125 | 0.0 | 1.0 | 0.00 | 0.00 | 0.00 | 58 | 1012.2 |
| 20260507050312 | 49 | 115 | 0.0 | 0.0 | 0.00 | 0.00 | 0.00 | 58 | 1012.3 |
| 20260507045810 | 49 | 15 | 3.0 | 4.0 | 0.00 | 0.00 | 0.00 | 56 | 1012.1 |
| 20260507045307 | 49 | 100 | 1.0 | 1.0 | 0.00 | 0.00 | 0.00 | 56 | 1012.4 |
| 20260507044803 | 50 | 239 | 1.0 | 1.0 | 0.00 | 0.00 | 0.00 | 56 | 1012.2 |
| 20260507044259 | 49 | 145 | 0.0 | 0.0 | 0.00 | 0.00 | 0.00 | 57 | 1012.2 |
| 20260507043755 | 50 | 116 | 0.0 | 0.0 | 0.00 | 0.00 | 0.00 | 59 | 1012.5 |
| 20260507043252 | 50 | 115 | 1.0 | 1.0 | 0.00 | 0.00 | 0.00 | 59 | 1012.2 |
| 20260507042749 | 50 | 97 | 1.0 | 1.0 | 0.00 | 0.00 | 0.00 | 57 | 1012.2 |
| 20260507042244 | 50 | 159 | 1.0 | 1.0 | 0.00 | 0.00 | 0.00 | 62 | 1012.5 |
| 20260507041742 | 50 | 106 | 0.0 | 0.0 | 0.00 | 0.00 | 0.00 | 69 | 1012.2 |
| 20260507041238 | 50 | 120 | 0.0 | 0.0 | 0.00 | 0.00 | 0.00 | 69 | 1012.2 |
| 20260507040735 | 50 | 113 | 0.0 | 0.0 | 0.00 | 0.00 | 0.00 | 68 | 1012.4 |
| 20260507040231 | 50 | 75 | 0.0 | 1.0 | 0.00 | 0.00 | 0.00 | 70 | 1012.3 |
| 20260507035727 | 50 | 128 | 0.0 | 0.0 | 0.00 | 0.21 | 0.21 | 69 | 1011.9 |
| 20260507035223 | 50 | 115 | 1.0 | 3.0 | 0.00 | 0.21 | 0.21 | 69 | 1011.8 |
| 20260507034720 | 50 | 117 | 0.0 | 0.0 | 0.00 | 0.21 | 0.21 | 72 | 1011.9 |
| 20260507034217 | 50 | 300 | 2.0 | 3.0 | 0.00 | 0.21 | 0.21 | 71 | 1011.9 |
| 20260507033716 | 50 | 105 | 0.0 | 0.0 | 0.00 | 0.21 | 0.21 | 72 | 1012.0 |
| 20260507033213 | 51 | 110 | 0.0 | 0.0 | 0.00 | 0.21 | 0.21 | 72 | 1012.0 |
| 20260507032710 | 51 | 111 | 0.0 | 0.0 | 0.00 | 0.21 | 0.21 | 72 | 1012.0 |
| 20260507032206 | 51 | 254 | 0.0 | 3.0 | 0.00 | 0.21 | 0.21 | 72 | 1012.1 |
| 20260507031703 | 51 | 133 | 0.0 | 0.0 | 0.00 | 0.21 | 0.21 | 72 | 1012.0 |
| 20260507031159 | 51 | 114 | 0.0 | 0.0 | 0.00 | 0.21 | 0.21 | 72 | 1011.9 |
| 20260507030656 | 51 | 114 | 0.0 | 0.0 | 0.00 | 0.21 | 0.21 | 72 | 1012.2 |
| 20260507030154 | 51 | 137 | 0.0 | 0.0 | 0.00 | 0.21 | 0.21 | 72 | 1012.1 |
| 20260507025651 | 51 | 102 | 1.0 | 1.0 | 0.00 | 0.21 | 0.21 | 71 | 1011.7 |
| 20260507025148 | 51 | 125 | 0.0 | 0.0 | 0.00 | 0.21 | 0.21 | 72 | 1011.8 |
| 20260507024646 | 51 | 88 | 1.0 | 1.0 | 0.00 | 0.21 | 0.21 | 71 | 1011.5 |
| 20260507024143 | 51 | 83 | 1.0 | 1.0 | 0.00 | 0.21 | 0.21 | 72 | 1011.4 |
| 20260507023638 | 51 | 46 | 1.0 | 1.0 | 0.00 | 0.21 | 0.21 | 73 | 1011.2 |
| 20260507023136 | 51 | 15 | 6.0 | 7.0 | 0.00 | 0.21 | 0.21 | 72 | 1011.5 |
| 20260507022633 | 52 | 102 | 0.0 | 0.0 | 0.00 | 0.21 | 0.21 | 73 | 1011.2 |
| 20260507022128 | 52 | 159 | 1.0 | 1.0 | 0.00 | 0.21 | 0.21 | 73 | 1011.3 |
| 20260507021625 | 51 | 152 | 0.0 | 0.0 | 0.00 | 0.21 | 0.21 | 73 | 1011.3 |
| 20260507021120 | 52 | 112 | 0.0 | 0.0 | 0.00 | 0.21 | 0.21 | 74 | 1011.2 |
| 20260507020619 | 52 | 157 | 0.0 | 0.0 | 0.00 | 0.21 | 0.21 | 72 | 1011.4 |
| 20260507020115 | 52 | 86 | 1.0 | 1.0 | 0.00 | 0.21 | 0.21 | 72 | 1011.3 |
| 20260507015614 | 52 | 145 | 0.0 | 0.0 | 0.00 | 0.21 | 0.21 | 73 | 1011.4 |
| 20260507015110 | 52 | 140 | 3.0 | 3.0 | 0.00 | 0.21 | 0.21 | 71 | 1011.4 |
| 20260507014607 | 52 | 146 | 0.0 | 1.0 | 0.00 | 0.21 | 0.21 | 73 | 1011.5 |
| 20260507014103 | 52 | 140 | 0.0 | 1.0 | 0.00 | 0.21 | 0.21 | 73 | 1011.5 |
| 20260507013559 | 52 | 157 | 0.0 | 1.0 | 0.00 | 0.21 | 0.21 | 74 | 1011.3 |
| 20260507013057 | 52 | 105 | 0.0 | 0.0 | 0.00 | 0.21 | 0.21 | 74 | 1011.4 |
| 20260507012554 | 52 | 161 | 0.0 | 1.0 | 0.00 | 0.21 | 0.21 | 74 | 1011.5 |
| 20260507012049 | 52 | 103 | 0.0 | 0.0 | 0.00 | 0.21 | 0.21 | 73 | 1011.5 |
| 20260507011548 | 52 | 246 | 2.0 | 3.0 | 0.00 | 0.21 | 0.21 | 75 | 1011.3 |
| 20260507011044 | 52 | 129 | 0.0 | 1.0 | 0.00 | 0.21 | 0.21 | 76 | 1011.6 |
| 20260507010538 | 52 | 146 | 0.0 | 1.0 | 0.00 | 0.21 | 0.21 | 76 | 1011.6 |
| 20260507010035 | 52 | 147 | 1.0 | 1.0 | 0.00 | 0.21 | 0.21 | 75 | 1011.7 |
| 20260507005533 | 52 | 326 | 4.0 | 6.0 | 0.00 | 0.21 | 0.21 | 76 | 1012.2 |
| 20260507005028 | 52 | 157 | 1.0 | 1.0 | 0.00 | 0.21 | 0.21 | 75 | 1011.7 |
| 20260507004526 | 52 | 333 | 3.0 | 3.0 | 0.00 | 0.21 | 0.21 | 76 | 1011.6 |
| 20260507004023 | 52 | 140 | 0.0 | 0.0 | 0.00 | 0.21 | 0.21 | 76 | 1011.3 |
| 20260507003518 | 53 | 278 | 1.0 | 1.0 | 0.00 | 0.21 | 0.21 | 77 | 1011.4 |
| 20260507003014 | 52 | 103 | 0.0 | 0.0 | 0.00 | 0.21 | 0.21 | 76 | 1011.3 |
| 20260507002510 | 53 | 117 | 0.0 | 0.0 | 0.00 | 0.21 | 0.21 | 77 | 1011.6 |
| 20260507002007 | 53 | 128 | 0.0 | 0.0 | 0.00 | 0.21 | 0.21 | 77 | 1011.4 |
| 20260507001503 | 53 | 137 | 0.0 | 0.0 | 0.00 | 0.21 | 0.21 | 77 | 1011.3 |
| 20260507001001 | 53 | 162 | 2.0 | 3.0 | 0.00 | 0.21 | 0.21 | 78 | 1011.3 |
| 20260507000456 | 53 | 129 | 0.0 | 0.0 | 0.00 | 0.21 | 0.21 | 78 | 1011.1 |
| 20260506235952 | 53 | 134 | 1.0 | 1.0 | 0.00 | 0.21 | 0.21 | 78 | 1010.9 |
| 20260506235450 | 53 | 137 | 0.0 | 0.0 | 0.00 | 0.21 | 0.21 | 77 | 1010.9 |
| 20260506234945 | 53 | 124 | 0.0 | 0.0 | 0.00 | 0.21 | 0.21 | 78 | 1010.9 |
| 20260506234443 | 53 | 110 | 2.0 | 3.0 | 0.00 | 0.21 | 0.21 | 77 | 1010.7 |
| 20260506233941 | 53 | 166 | 2.0 | 3.0 | 0.00 | 0.21 | 0.21 | 78 | 1010.4 |
| 20260506233437 | 53 | 122 | 0.0 | 1.0 | 0.00 | 0.21 | 0.21 | 78 | 1010.4 |
| 20260506232933 | 53 | 81 | 1.0 | 1.0 | 0.00 | 0.21 | 0.21 | 79 | 1010.2 |
| 20260506232430 | 54 | 194 | 1.0 | 1.0 | 0.00 | 0.21 | 0.21 | 80 | 1010.1 |
| 20260506231925 | 54 | 185 | 4.0 | 4.0 | 0.00 | 0.21 | 0.21 | 79 | 1010.1 |
| 20260506231423 | 54 | 53 | 0.0 | 1.0 | 0.00 | 0.21 | 0.21 | 79 | 1010.0 |
| 20260506230920 | 54 | 87 | 2.0 | 3.0 | 0.00 | 0.21 | 0.21 | 79 | 1010.0 |
| 20260506230417 | 54 | 156 | 1.0 | 1.0 | 0.00 | 0.21 | 0.21 | 78 | 1010.0 |
| 20260506225913 | 54 | 323 | 1.0 | 1.0 | 0.00 | 0.21 | 0.21 | 79 | 1010.0 |
| 20260506225411 | 54 | 234 | 2.0 | 3.0 | 0.00 | 0.21 | 0.21 | 79 | 1010.0 |
| 20260506224908 | 55 | 265 | 4.0 | 4.0 | 0.00 | 0.21 | 0.21 | 78 | 1010.2 |
| 20260506224405 | 55 | 139 | 1.0 | 1.0 | 0.00 | 0.21 | 0.21 | 79 | 1010.2 |
| 20260506223901 | 55 | 131 | 0.0 | 0.0 | 0.00 | 0.21 | 0.21 | 79 | 1010.0 |
| 20260506223356 | 55 | 323 | 3.0 | 3.0 | 0.00 | 0.21 | 0.21 | 79 | 1010.0 |
| 20260506222854 | 55 | 176 | 1.0 | 3.0 | 0.00 | 0.21 | 0.21 | 79 | 1009.8 |
| 20260506222349 | 55 | 156 | 0.0 | 1.0 | 0.00 | 0.21 | 0.21 | 80 | 1009.7 |
| 20260506221848 | 55 | 147 | 1.0 | 1.0 | 0.00 | 0.21 | 0.21 | 80 | 1009.6 |
| 20260506221344 | 55 | 200 | 2.0 | 4.0 | 0.00 | 0.21 | 0.21 | 80 | 1009.8 |
| 20260506220842 | 55 | 287 | 0.0 | 1.0 | 0.00 | 0.21 | 0.21 | 79 | 1009.6 |
| 20260506220337 | 55 | 125 | 2.0 | 3.0 | 0.00 | 0.21 | 0.21 | 80 | 1009.6 |
| 20260506215834 | 55 | 145 | 0.0 | 1.0 | 0.00 | 0.21 | 0.21 | 80 | 1009.3 |
| 20260506215330 | 55 | 349 | 4.0 | 6.0 | 0.00 | 0.21 | 0.21 | 79 | 1009.4 |
| 20260506214826 | 55 | 156 | 0.0 | 0.0 | 0.00 | 0.21 | 0.21 | 80 | 1009.4 |
| 20260506214323 | 55 | 75 | 1.0 | 3.0 | 0.00 | 0.21 | 0.21 | 81 | 1009.2 |
| 20260506213821 | 55 | 95 | 2.0 | 3.0 | 0.00 | 0.21 | 0.21 | 80 | 1009.0 |
| 20260506213318 | 56 | 4 | 2.0 | 3.0 | 0.00 | 0.21 | 0.21 | 81 | 1009.1 |
| 20260506212816 | 56 | 48 | 1.0 | 3.0 | 0.00 | 0.21 | 0.21 | 80 | 1008.9 |
| 20260506212311 | 57 | 238 | 3.0 | 4.0 | 0.00 | 0.21 | 0.21 | 80 | 1008.9 |
| 20260506211806 | 57 | 34 | 0.0 | 1.0 | 0.00 | 0.21 | 0.21 | 79 | 1008.8 |
| 20260506211303 | 57 | 136 | 0.0 | 1.0 | 0.00 | 0.21 | 0.21 | 78 | 1008.7 |
| 20260506210801 | 57 | 319 | 6.0 | 7.0 | 0.00 | 0.21 | 0.21 | 79 | 1008.4 |
| 20260506210257 | 57 | 24 | 2.0 | 4.0 | 0.00 | 0.21 | 0.21 | 80 | 1008.6 |
| 20260506205754 | 57 | 232 | 2.0 | 3.0 | 0.00 | 0.21 | 0.21 | 81 | 1008.3 |
| 20260506205250 | 57 | 320 | 6.0 | 7.0 | 0.00 | 0.21 | 0.21 | 81 | 1008.3 |
| 20260506204746 | 57 | 170 | 2.0 | 3.0 | 0.00 | 0.21 | 0.21 | 82 | 1008.2 |
| 20260506204244 | 57 | 116 | 1.0 | 1.0 | 0.00 | 0.21 | 0.21 | 82 | 1008.3 |
| 20260506203742 | 57 | 131 | 2.0 | 3.0 | 0.00 | 0.21 | 0.21 | 82 | 1008.2 |
| 20260506203239 | 57 | 77 | 2.0 | 4.0 | 0.00 | 0.21 | 0.21 | 83 | 1008.2 |
| 20260506202736 | 57 | 353 | 1.0 | 3.0 | 0.00 | 0.21 | 0.21 | 83 | 1008.2 |
| 20260506202233 | 58 | 81 | 1.0 | 1.0 | 0.00 | 0.21 | 0.21 | 84 | 1008.1 |
| 20260506201730 | 58 | 115 | 0.0 | 0.0 | 0.00 | 0.21 | 0.21 | 85 | 1008.1 |
| 20260506201226 | 58 | 115 | 0.0 | 0.0 | 0.00 | 0.21 | 0.21 | 86 | 1008.0 |
| 20260506200723 | 58 | 150 | 1.0 | 1.0 | 0.00 | 0.21 | 0.21 | 85 | 1008.1 |
| 20260506200220 | 58 | 319 | 2.0 | 3.0 | 0.00 | 0.21 | 0.21 | 85 | 1007.9 |
| 20260506195716 | 58 | 204 | 3.0 | 4.0 | 0.00 | 0.21 | 0.21 | 85 | 1008.0 |
| 20260506195212 | 58 | 207 | 0.0 | 3.0 | 0.00 | 0.21 | 0.21 | 85 | 1007.8 |
| 20260506194704 | 59 | 265 | 2.0 | 3.0 | 0.00 | 0.21 | 0.21 | 85 | 1007.7 |
| 20260506194201 | 59 | 186 | 3.0 | 4.0 | 0.00 | 0.21 | 0.21 | 83 | 1007.7 |
| 20260506193658 | 60 | 184 | 1.0 | 1.0 | 0.00 | 0.21 | 0.21 | 82 | 1007.4 |
| 20260506193155 | 60 | 205 | 3.0 | 4.0 | 0.00 | 0.21 | 0.21 | 82 | 1007.3 |
| 20260506192652 | 60 | 33 | 4.0 | 6.0 | 0.00 | 0.21 | 0.21 | 81 | 1007.4 |
| 20260506192148 | 61 | 170 | 1.0 | 1.0 | 0.00 | 0.21 | 0.21 | 82 | 1007.4 |
| 20260506191645 | 61 | 152 | 1.0 | 1.0 | 0.00 | 0.21 | 0.21 | 83 | 1007.1 |
| 20260506191141 | 61 | 175 | 3.0 | 4.0 | 0.00 | 0.21 | 0.21 | 80 | 1007.2 |
| 20260506190639 | 62 | 214 | 3.0 | 4.0 | 0.00 | 0.21 | 0.21 | 83 | 1007.1 |
| 20260506190135 | 61 | 194 | 3.0 | 4.0 | 0.00 | 0.21 | 0.21 | 84 | 1007.0 |
| 20260506185633 | 60 | 166 | 4.0 | 4.0 | 0.00 | 0.21 | 0.21 | 87 | 1007.1 |
| 20260506185128 | 60 | 171 | 1.0 | 1.0 | 0.00 | 0.21 | 0.21 | 89 | 1007.2 |
| 20260506184626 | 59 | 161 | 1.0 | 1.0 | 0.00 | 0.21 | 0.21 | 89 | 1007.3 |
| 20260506184123 | 59 | 169 | 1.0 | 1.0 | 0.00 | 0.21 | 0.21 | 93 | 1007.2 |
| 20260506183620 | 59 | 180 | 4.0 | 4.0 | 0.00 | 0.21 | 0.21 | 98 | 1006.9 |
| 20260506183116 | 60 | 136 | 0.0 | 1.0 | 0.00 | 0.21 | 0.21 | 99 | 1007.2 |
| 20260506182614 | 59 | 142 | 0.0 | 1.0 | 0.00 | 0.21 | 0.21 | 99 | 1007.2 |
| 20260506182110 | 59 | 142 | 0.0 | 1.0 | 0.00 | 0.21 | 0.21 | 99 | 1007.3 |
| 20260506181608 | 59 | 146 | 0.0 | 1.0 | 0.00 | 0.21 | 0.21 | 99 | 1007.3 |
| 20260506181105 | 59 | 155 | 0.0 | 1.0 | 0.00 | 0.21 | 0.21 | 99 | 1007.4 |
| 20260506180602 | 59 | 169 | 1.0 | 1.0 | 0.00 | 0.21 | 0.21 | 99 | 1007.3 |
| 20260506180058 | 59 | 161 | 1.0 | 1.0 | 0.00 | 0.21 | 0.21 | 99 | 1007.2 |
| 20260506175554 | 59 | 160 | 2.0 | 3.0 | 0.00 | 0.21 | 0.21 | 99 | 1007.2 |
| 20260506175051 | 59 | 143 | 0.0 | 0.0 | 0.00 | 0.21 | 0.21 | 99 | 1007.0 |
| 20260506174550 | 59 | 157 | 2.0 | 3.0 | 0.00 | 0.21 | 0.21 | 99 | 1007.2 |
| 20260506174045 | 59 | 148 | 1.0 | 1.0 | 0.00 | 0.21 | 0.21 | 99 | 1007.1 |
| 20260506173544 | 59 | 143 | 0.0 | 0.0 | 0.00 | 0.21 | 0.21 | 99 | 1007.0 |
| 20260506173040 | 59 | 152 | 1.0 | 1.0 | 0.00 | 0.21 | 0.21 | 99 | 1007.0 |
| 20260506172537 | 59 | 156 | 0.0 | 1.0 | 0.00 | 0.21 | 0.21 | 99 | 1006.9 |
| 20260506172033 | 59 | 143 | 1.0 | 1.0 | 0.00 | 0.21 | 0.21 | 99 | 1006.8 |
| 20260506171531 | 58 | 140 | 0.0 | 0.0 | 0.00 | 0.21 | 0.21 | 99 | 1006.8 |
| 20260506171028 | 58 | 152 | 0.0 | 1.0 | 0.00 | 0.21 | 0.21 | 99 | 1006.9 |
| 20260506170526 | 58 | 150 | 1.0 | 1.0 | 0.00 | 0.21 | 0.21 | 99 | 1006.9 |
| 20260506170018 | 58 | 140 | 0.0 | 0.0 | 0.00 | 0.21 | 0.21 | 99 | 1007.0 |
| 20260506165516 | 58 | 156 | 1.0 | 1.0 | 0.00 | 0.21 | 0.21 | 99 | 1006.9 |
| 20260506165012 | 58 | 165 | 1.0 | 1.0 | 0.00 | 0.21 | 0.21 | 99 | 1007.0 |
| 20260506164508 | 58 | 190 | 3.0 | 3.0 | 0.00 | 0.21 | 0.21 | 99 | 1006.9 |
| 20260506164006 | 58 | 140 | 2.0 | 3.0 | 0.00 | 0.21 | 0.21 | 99 | 1006.8 |
| 20260506163502 | 58 | 152 | 2.0 | 3.0 | 0.00 | 0.21 | 0.21 | 99 | 1006.7 |
| 20260506162956 | 58 | 179 | 2.0 | 3.0 | 0.00 | 0.21 | 0.21 | 99 | 1007.0 |
| 20260506162454 | 58 | 172 | 2.0 | 3.0 | 0.00 | 0.21 | 0.21 | 99 | 1007.0 |
| 20260506161951 | 58 | 193 | 4.0 | 4.0 | 0.00 | 0.21 | 0.21 | 98 | 1006.9 |
| 20260506161449 | 58 | 164 | 1.0 | 1.0 | 0.00 | 0.21 | 0.21 | 98 | 1006.9 |
| 20260506160946 | 57 | 176 | 2.0 | 3.0 | 0.00 | 0.21 | 0.21 | 98 | 1007.0 |
| 20260506160443 | 57 | 164 | 1.0 | 1.0 | 0.07 | 0.21 | 0.21 | 98 | 1007.1 |
| 20260506155941 | 57 | 153 | 0.0 | 0.0 | 0.07 | 0.21 | 0.21 | 98 | 1006.9 |
| 20260506155438 | 57 | 183 | 3.0 | 3.0 | 0.00 | 0.20 | 0.20 | 98 | 1006.9 |
| 20260506153605 | 57 | 149 | 0.0 | 0.0 | 0.00 | 0.20 | 0.20 | 98 | 1006.9 |
| 20260506153102 | 57 | 151 | 0.0 | 1.0 | 0.00 | 0.20 | 0.20 | 98 | 1006.7 |
| 20260506152559 | 57 | 146 | 0.0 | 0.0 | 0.00 | 0.20 | 0.20 | 98 | 1006.7 |
| 20260506152057 | 57 | 146 | 0.0 | 0.0 | 0.00 | 0.20 | 0.20 | 98 | 1006.8 |
| 20260506151555 | 57 | 145 | 0.0 | 0.0 | 0.00 | 0.20 | 0.20 | 99 | 1006.5 |
| 20260506151052 | 57 | 154 | 1.0 | 1.0 | 0.00 | 0.20 | 0.20 | 99 | 1006.5 |
| 20260506150548 | 57 | 149 | 0.0 | 1.0 | 0.00 | 0.20 | 0.20 | 99 | 1006.6 |
| 20260506150045 | 57 | 133 | 0.0 | 0.0 | 0.00 | 0.20 | 0.20 | 99 | 1006.4 |
| 20260506145542 | 57 | 138 | 0.0 | 0.0 | 0.00 | 0.20 | 0.20 | 99 | 1006.3 |
| 20260506145039 | 57 | 142 | 0.0 | 0.0 | 0.00 | 0.20 | 0.20 | 99 | 1006.5 |
| 20260506144536 | 57 | 138 | 0.0 | 0.0 | 0.00 | 0.20 | 0.20 | 99 | 1006.3 |
| 20260506144033 | 57 | 130 | 0.0 | 0.0 | 0.00 | 0.20 | 0.20 | 99 | 1006.4 |
| 20260506143531 | 57 | 124 | 0.0 | 0.0 | 0.00 | 0.20 | 0.20 | 99 | 1006.4 |
| 20260506143029 | 57 | 124 | 0.0 | 0.0 | 0.00 | 0.20 | 0.20 | 99 | 1006.5 |
| 20260506142527 | 57 | 124 | 0.0 | 0.0 | 0.00 | 0.20 | 0.20 | 99 | 1006.2 |
| 20260506142025 | 56 | 116 | 0.0 | 0.0 | 0.00 | 0.20 | 0.20 | 99 | 1006.2 |
| 20260506141522 | 56 | 125 | 0.0 | 0.0 | 0.00 | 0.20 | 0.20 | 99 | 1006.4 |
| 20260506141020 | 56 | 126 | 0.0 | 0.0 | 0.00 | 0.20 | 0.20 | 99 | 1006.3 |
| 20260506140517 | 56 | 132 | 0.0 | 0.0 | 0.00 | 0.20 | 0.20 | 99 | 1006.2 |
| 20260506140015 | 56 | 133 | 0.0 | 0.0 | 0.00 | 0.20 | 0.20 | 99 | 1006.5 |
| 20260506135511 | 56 | 133 | 0.0 | 0.0 | 0.00 | 0.20 | 0.20 | 99 | 1006.5 |
| 20260506135008 | 56 | 133 | 0.0 | 0.0 | 0.00 | 0.20 | 0.20 | 99 | 1006.4 |
| 20260506134504 | 56 | 133 | 0.0 | 0.0 | 0.05 | 0.20 | 0.20 | 99 | 1006.5 |
| 20260506134000 | 55 | 133 | 0.0 | 0.0 | 0.05 | 0.20 | 0.20 | 99 | 1006.7 |
| 20260506133457 | 55 | 133 | 0.0 | 0.0 | 0.05 | 0.19 | 0.19 | 99 | 1006.7 |
| 20260506132954 | 55 | 133 | 0.0 | 0.0 | 0.05 | 0.19 | 0.19 | 99 | 1006.8 |
| 20260506132451 | 55 | 133 | 0.0 | 0.0 | 0.05 | 0.18 | 0.18 | 99 | 1006.6 |
| 20260506131948 | 55 | 133 | 0.0 | 0.0 | 0.05 | 0.18 | 0.18 | 99 | 1006.6 |
| 20260506131445 | 55 | 142 | 0.0 | 0.0 | 0.00 | 0.17 | 0.17 | 99 | 1006.6 |
| 20260506130942 | 56 | 135 | 1.0 | 1.0 | 0.07 | 0.17 | 0.17 | 99 | 1006.5 |
| 20260506130439 | 56 | 127 | 0.0 | 0.0 | 0.07 | 0.17 | 0.17 | 99 | 1006.4 |
| 20260506125936 | 55 | 126 | 0.0 | 0.0 | 0.00 | 0.16 | 0.16 | 99 | 1006.6 |
| 20260506125435 | 55 | 126 | 0.0 | 0.0 | 0.00 | 0.16 | 0.16 | 99 | 1006.6 |
| 20260506124933 | 55 | 126 | 0.0 | 0.0 | 0.05 | 0.16 | 0.16 | 99 | 1006.4 |
| 20260506124430 | 56 | 126 | 0.0 | 0.0 | 0.05 | 0.16 | 0.16 | 99 | 1006.4 |
| 20260506123927 | 55 | 126 | 0.0 | 0.0 | 0.00 | 0.15 | 0.15 | 98 | 1006.6 |
| 20260506123425 | 55 | 127 | 0.0 | 0.0 | 0.05 | 0.15 | 0.15 | 98 | 1006.5 |
| 20260506122922 | 55 | 118 | 0.0 | 0.0 | 0.12 | 0.15 | 0.15 | 98 | 1006.8 |
| 20260506122419 | 55 | 109 | 0.0 | 1.0 | 0.07 | 0.15 | 0.15 | 97 | 1006.6 |
| 20260506121918 | 55 | 118 | 0.0 | 0.0 | 0.05 | 0.13 | 0.13 | 97 | 1006.4 |
| 20260506121414 | 55 | 117 | 0.0 | 0.0 | 0.09 | 0.13 | 0.13 | 96 | 1006.5 |
| 20260506120911 | 55 | 119 | 0.0 | 0.0 | 0.05 | 0.13 | 0.13 | 96 | 1006.4 |
| 20260506120409 | 55 | 111 | 0.0 | 0.0 | 0.05 | 0.12 | 0.12 | 96 | 1006.6 |
| 20260506115906 | 55 | 120 | 0.0 | 0.0 | 0.12 | 0.12 | 0.12 | 95 | 1006.7 |
| 20260506115404 | 55 | 122 | 0.0 | 0.0 | 0.12 | 0.11 | 0.11 | 94 | 1006.9 |